createdAt,value
2022-11-05T00:01:08.808Z,8.13
2022-11-05T00:03:55.539Z,8.14
2022-11-05T00:06:42.743Z,8.15
2022-11-05T00:09:43.640Z,8.15
2022-11-05T00:12:32.981Z,8.21
2022-11-05T00:15:19.482Z,8.23
2022-11-05T00:17:47.495Z,8.25
2022-11-05T00:20:15.787Z,8.26
2022-11-05T00:23:02.437Z,8.26
2022-11-05T00:25:31.259Z,8.28
2022-11-05T00:28:03.230Z,8.28
2022-11-05T00:30:31.200Z,8.28
2022-11-05T00:33:04.797Z,8.28
2022-11-05T00:35:32.747Z,8.33
2022-11-05T00:38:00.818Z,8.33
2022-11-05T00:40:28.944Z,8.38
2022-11-05T00:43:15.560Z,8.45
2022-11-05T00:45:43.559Z,8.44
2022-11-05T00:48:30.092Z,8.42
2022-11-05T00:50:58.113Z,8.42
2022-11-05T00:53:26.084Z,8.44
2022-11-05T00:55:54.647Z,8.41
2022-11-05T00:58:23.086Z,8.37
2022-11-05T01:00:53.451Z,8.40
2022-11-05T01:03:25.149Z,8.37
2022-11-05T01:05:58.797Z,8.38
2022-11-05T01:08:28.044Z,8.39
2022-11-05T01:10:58.761Z,8.35
2022-11-05T01:13:30.301Z,8.34
2022-11-05T01:15:58.284Z,8.33
2022-11-05T01:18:26.296Z,8.30
2022-11-05T01:20:54.270Z,8.30
2022-11-05T01:23:22.382Z,8.30
2022-11-05T01:25:50.304Z,8.25
2022-11-05T01:28:18.344Z,8.24
2022-11-05T01:30:46.359Z,8.29
2022-11-05T01:33:14.698Z,8.32
2022-11-05T01:35:42.657Z,8.35
2022-11-05T01:38:11.152Z,8.39
2022-11-05T01:40:42.901Z,8.40
2022-11-05T01:43:17.251Z,8.41
2022-11-05T01:45:49.636Z,8.36
2022-11-05T01:48:30.129Z,8.34
2022-11-05T01:51:05.408Z,8.35
2022-11-05T01:53:47.672Z,8.32
2022-11-05T01:56:29.005Z,8.35
2022-11-05T01:59:05.571Z,8.40
2022-11-05T02:01:33.860Z,8.40
2022-11-05T02:04:05.172Z,8.40
2022-11-05T02:06:37.439Z,8.39
2022-11-05T02:09:11.434Z,8.41
2022-11-05T02:11:39.446Z,8.35
2022-11-05T02:14:07.479Z,8.35
2022-11-05T02:17:06.298Z,8.34
2022-11-05T02:20:11.831Z,8.35
2022-11-05T02:22:42.881Z,8.40
2022-11-05T02:25:29.531Z,8.43
2022-11-05T02:28:25.048Z,8.46
2022-11-05T02:31:05.168Z,8.44
2022-11-05T02:33:36.043Z,8.37
2022-11-05T02:36:14.349Z,8.36
2022-11-05T02:39:00.739Z,8.31
2022-11-05T02:41:36.213Z,8.28
2022-11-05T02:44:14.477Z,8.24
2022-11-05T02:46:54.717Z,8.23
2022-11-05T02:49:35.272Z,8.19
2022-11-05T02:52:08.695Z,8.17
2022-11-05T02:54:39.842Z,8.15
2022-11-05T02:57:07.785Z,8.20
2022-11-05T02:59:35.760Z,8.27
2022-11-05T03:02:05.284Z,8.29
2022-11-05T03:04:33.478Z,8.31
2022-11-05T03:07:01.450Z,8.34
2022-11-05T03:10:07.375Z,8.35
2022-11-05T03:12:38.266Z,8.39
2022-11-05T03:15:24.705Z,8.42
2022-11-05T03:17:58.532Z,8.46
2022-11-05T03:20:37.395Z,8.41
2022-11-05T03:23:23.793Z,8.40
2022-11-05T03:25:59.283Z,8.45
2022-11-05T03:28:32.393Z,8.40
2022-11-05T03:31:04.043Z,8.34
2022-11-05T03:33:35.452Z,8.43
2022-11-05T03:36:16.891Z,8.44
2022-11-05T03:38:48.071Z,8.44
2022-11-05T03:41:17.812Z,8.39
2022-11-05T03:43:50.579Z,8.30
2022-11-05T03:46:24.420Z,8.33
2022-11-05T03:48:55.908Z,8.30
2022-11-05T03:51:46.191Z,8.34
2022-11-05T03:54:14.744Z,8.45
2022-11-05T03:57:09.407Z,8.43
2022-11-05T03:59:46.385Z,8.43
2022-11-05T04:02:16.901Z,8.44
2022-11-05T04:04:45.393Z,8.43
2022-11-05T04:07:32.229Z,8.42
2022-11-05T04:10:18.929Z,8.40
2022-11-05T04:13:05.289Z,8.37
2022-11-05T04:15:53.783Z,8.37
2022-11-05T04:18:22.398Z,8.35
2022-11-05T04:21:09.536Z,8.34
2022-11-05T04:23:55.953Z,8.33
2022-11-05T04:26:23.890Z,8.35
2022-11-05T04:29:11.943Z,8.38
2022-11-05T04:31:40.081Z,8.43
2022-11-05T04:34:08.802Z,8.40
2022-11-05T04:36:36.736Z,8.44
2022-11-05T04:39:04.689Z,8.45
2022-11-05T04:41:32.626Z,8.44
2022-11-05T04:44:00.627Z,8.47
2022-11-05T04:46:28.541Z,8.48
2022-11-05T04:48:56.477Z,8.42
2022-11-05T04:51:24.549Z,8.44
2022-11-05T04:53:52.423Z,8.47
2022-11-05T04:56:23.182Z,8.47
2022-11-05T04:58:51.775Z,8.47
2022-11-05T05:01:22.490Z,8.45
2022-11-05T05:03:51.810Z,8.48
2022-11-05T05:06:21.186Z,8.50
2022-11-05T05:08:50.814Z,8.56
2022-11-05T05:11:21.349Z,8.60
2022-11-05T05:13:49.454Z,8.64
2022-11-05T05:16:26.277Z,8.68
2022-11-05T05:18:54.600Z,8.71
2022-11-05T05:21:41.815Z,8.71
2022-11-05T05:24:21.243Z,8.70
2022-11-05T05:26:51.221Z,8.66
2022-11-05T05:29:19.240Z,8.60
2022-11-05T05:31:47.210Z,8.64
2022-11-05T05:34:15.269Z,8.64
2022-11-05T05:36:43.480Z,8.66
2022-11-05T05:39:11.554Z,8.66
2022-11-05T05:41:39.578Z,8.68
2022-11-05T05:44:07.549Z,8.71
2022-11-05T05:46:35.508Z,8.73
2022-11-05T05:49:09.427Z,8.76
2022-11-05T05:51:40.349Z,8.78
2022-11-05T05:54:08.333Z,8.81
2022-11-05T05:56:36.283Z,8.81
2022-11-05T05:59:05.968Z,8.82
2022-11-05T06:01:34.168Z,8.90
2022-11-05T06:04:02.597Z,8.94
2022-11-05T06:06:30.897Z,9.00
2022-11-05T06:08:58.775Z,9.00
2022-11-05T06:11:27.500Z,9.08
2022-11-05T06:13:55.519Z,9.09
2022-11-05T06:16:23.673Z,9.14
2022-11-05T06:18:51.669Z,9.17
2022-11-05T06:21:19.680Z,9.20
2022-11-05T06:23:49.169Z,9.24
2022-11-05T06:26:18.308Z,9.31
2022-11-05T06:28:47.084Z,9.35
2022-11-05T06:31:15.722Z,9.34
2022-11-05T06:33:44.006Z,9.36
2022-11-05T06:36:15.693Z,9.43
2022-11-05T06:38:43.849Z,9.52
2022-11-05T06:41:11.803Z,9.57
2022-11-05T06:43:40.103Z,9.63
2022-11-05T06:46:09.696Z,9.67
2022-11-05T06:48:38.100Z,9.68
2022-11-05T06:51:08.079Z,9.73
2022-11-05T06:53:36.618Z,9.78
2022-11-05T06:56:06.109Z,9.81
2022-11-05T06:58:34.640Z,9.86
2022-11-05T07:01:09.034Z,9.90
2022-11-05T07:03:38.071Z,9.93
2022-11-05T07:06:07.408Z,9.98
2022-11-05T07:08:37.671Z,10.00
2022-11-05T07:11:06.149Z,10.08
2022-11-05T07:13:34.179Z,10.08
2022-11-05T07:16:02.216Z,10.13
2022-11-05T07:18:30.245Z,10.16
2022-11-05T07:21:00.457Z,10.22
2022-11-05T07:23:28.546Z,10.28
2022-11-05T07:25:56.620Z,10.27
2022-11-05T07:28:24.520Z,10.32
2022-11-05T07:30:52.428Z,10.39
2022-11-05T07:33:20.555Z,10.47
2022-11-05T07:35:48.500Z,10.43
2022-11-05T07:38:17.129Z,10.40
2022-11-05T07:40:45.221Z,10.49
2022-11-05T07:43:13.481Z,10.57
2022-11-05T07:45:41.893Z,10.63
2022-11-05T07:48:09.962Z,10.68
2022-11-05T07:50:38.246Z,10.77
2022-11-05T07:53:10.784Z,10.82
2022-11-05T07:55:41.350Z,10.86
2022-11-05T07:58:11.133Z,10.93
2022-11-05T08:00:39.721Z,10.85
2022-11-05T08:03:13.507Z,10.84
2022-11-05T08:05:47.425Z,10.89
2022-11-05T08:08:39.231Z,10.92
2022-11-05T08:11:10.876Z,10.96
2022-11-05T08:13:39.228Z,11.02
2022-11-05T08:16:08.260Z,11.09
2022-11-05T08:18:36.536Z,11.15
2022-11-05T08:21:05.900Z,11.18
2022-11-05T08:23:34.005Z,11.26
2022-11-05T08:26:04.015Z,11.31
2022-11-05T08:28:32.450Z,11.40
2022-11-05T08:31:00.379Z,11.51
2022-11-05T08:33:31.442Z,11.53
2022-11-05T08:36:02.960Z,11.66
2022-11-05T08:38:31.040Z,11.74
2022-11-05T08:40:59.125Z,11.93
2022-11-05T08:43:28.501Z,12.09
2022-11-05T08:45:57.386Z,12.18
2022-11-05T08:48:25.559Z,12.32
2022-11-05T08:50:53.707Z,12.39
2022-11-05T08:53:21.807Z,12.41
2022-11-05T08:55:51.567Z,12.55
2022-11-05T08:58:20.821Z,12.61
2022-11-05T09:00:50.144Z,12.68
2022-11-05T09:03:19.114Z,12.75
2022-11-05T09:05:47.275Z,12.88
2022-11-05T09:08:18.194Z,12.98
2022-11-05T09:10:47.480Z,13.09
2022-11-05T09:13:19.724Z,13.21
2022-11-05T09:15:51.662Z,13.22
2022-11-05T09:18:20.327Z,13.30
2022-11-05T09:20:48.944Z,13.31
2022-11-05T09:23:17.593Z,13.33
2022-11-05T09:25:46.381Z,13.31
2022-11-05T09:28:18.064Z,13.34
2022-11-05T09:30:48.272Z,13.35
2022-11-05T09:33:18.487Z,13.41
2022-11-05T09:35:46.793Z,13.38
2022-11-05T09:38:15.110Z,13.35
2022-11-05T09:40:55.979Z,13.33
2022-11-05T09:43:31.980Z,13.35
2022-11-05T09:46:08.476Z,13.27
2022-11-05T09:48:39.289Z,13.35
2022-11-05T09:51:07.712Z,13.43
2022-11-05T09:53:40.066Z,13.48
2022-11-05T09:56:20.683Z,13.36
2022-11-05T09:58:54.836Z,13.60
2022-11-05T10:01:31.078Z,13.81
2022-11-05T10:04:02.784Z,14.00
2022-11-05T10:06:31.066Z,14.17
2022-11-05T10:09:15.071Z,14.30
2022-11-05T10:12:15.813Z,14.48
2022-11-05T10:14:50.347Z,14.54
2022-11-05T10:17:24.439Z,14.60
2022-11-05T10:20:23.785Z,14.71
2022-11-05T10:22:58.602Z,14.88
2022-11-05T10:25:32.388Z,14.99
2022-11-05T10:28:01.461Z,15.09
2022-11-05T10:30:29.668Z,15.11
2022-11-05T10:33:01.477Z,15.20
2022-11-05T10:35:33.672Z,15.20
2022-11-05T10:38:02.107Z,15.23
2022-11-05T10:40:41.523Z,15.31
2022-11-05T10:43:18.734Z,15.43
2022-11-05T10:45:58.286Z,15.51
2022-11-05T10:48:35.283Z,15.50
2022-11-05T10:51:07.937Z,15.62
2022-11-05T10:53:39.205Z,15.70
2022-11-05T10:56:32.774Z,15.83
2022-11-05T10:59:06.708Z,15.86
2022-11-05T11:01:37.788Z,15.92
2022-11-05T11:04:17.537Z,15.86
2022-11-05T11:06:52.780Z,15.92
2022-11-05T11:09:28.268Z,15.76
2022-11-05T11:12:01.961Z,15.83
2022-11-05T11:14:31.007Z,15.77
2022-11-05T11:17:24.894Z,15.78
2022-11-05T11:20:11.627Z,15.65
2022-11-05T11:22:39.559Z,15.72
2022-11-05T11:26:00.869Z,15.62
2022-11-05T11:28:34.646Z,15.53
2022-11-05T11:31:12.762Z,15.53
2022-11-05T11:33:46.502Z,15.57
2022-11-05T11:36:19.048Z,15.43
2022-11-05T11:38:47.316Z,15.39
2022-11-05T11:41:29.568Z,15.50
2022-11-05T11:44:08.831Z,15.52
2022-11-05T11:46:37.685Z,15.60
2022-11-05T11:49:07.064Z,15.70
2022-11-05T11:51:49.529Z,15.83
2022-11-05T11:54:20.943Z,15.99
2022-11-05T11:56:57.112Z,16.19
2022-11-05T11:59:47.204Z,16.28
2022-11-05T12:02:58.711Z,16.38
2022-11-05T12:06:08.170Z,16.42
2022-11-05T12:08:45.982Z,16.53
2022-11-05T12:11:15.037Z,16.50
2022-11-05T12:13:57.035Z,16.54
2022-11-05T12:16:50.036Z,16.56
2022-11-05T12:19:34.429Z,16.53
2022-11-05T12:22:33.302Z,16.59
2022-11-05T12:25:14.517Z,16.45
2022-11-05T12:28:22.991Z,16.27
2022-11-05T12:31:27.657Z,16.34
2022-11-05T12:34:04.626Z,16.32
2022-11-05T12:36:38.634Z,16.25
2022-11-05T12:39:37.351Z,16.27
2022-11-05T12:42:32.424Z,16.19
2022-11-05T12:45:07.692Z,16.19
2022-11-05T12:48:35.827Z,16.09
2022-11-05T12:51:13.870Z,16.03
2022-11-05T12:54:20.778Z,15.98
2022-11-05T12:56:56.883Z,15.95
2022-11-05T12:59:34.916Z,15.95
2022-11-05T13:02:27.056Z,15.82
2022-11-05T13:05:01.311Z,15.90
2022-11-05T13:07:40.706Z,15.97
2022-11-05T13:10:18.631Z,16.02
2022-11-05T13:13:00.624Z,16.06
2022-11-05T13:15:37.601Z,16.14
2022-11-05T13:18:14.489Z,16.18
2022-11-05T13:20:50.328Z,16.21
2022-11-05T13:23:41.638Z,16.16
2022-11-05T13:26:59.347Z,16.02
2022-11-05T13:30:02.647Z,15.98
2022-11-05T13:32:43.666Z,15.96
2022-11-05T13:35:26.253Z,15.89
2022-11-05T13:38:17.914Z,15.88
2022-11-05T13:41:01.636Z,15.81
2022-11-05T13:43:50.589Z,15.74
2022-11-05T13:46:40.530Z,15.68
2022-11-05T13:49:27.591Z,15.56
2022-11-05T13:51:55.583Z,15.41
2022-11-05T13:54:41.835Z,15.39
2022-11-05T13:57:16.281Z,15.34
2022-11-05T13:59:51.114Z,15.24
2022-11-05T14:02:23.982Z,15.17
2022-11-05T14:05:00.988Z,15.11
2022-11-05T14:07:44.097Z,15.10
2022-11-05T14:10:26.155Z,15.03
2022-11-05T14:12:56.933Z,15.00
2022-11-05T14:15:29.627Z,14.93
2022-11-05T14:18:31.096Z,14.88
2022-11-05T14:21:01.285Z,14.79
2022-11-05T14:23:41.451Z,14.73
2022-11-05T14:26:16.186Z,14.66
2022-11-05T14:28:47.166Z,14.61
2022-11-05T14:31:18.188Z,14.56
2022-11-05T14:34:01.516Z,14.49
2022-11-05T14:36:36.076Z,14.47
2022-11-05T14:39:19.659Z,14.42
2022-11-05T14:42:04.667Z,14.37
2022-11-05T14:44:35.734Z,14.32
2022-11-05T14:47:08.774Z,14.25
2022-11-05T14:49:47.859Z,14.19
2022-11-05T14:52:19.521Z,14.09
2022-11-05T14:54:50.779Z,14.03
2022-11-05T14:57:43.013Z,13.97
2022-11-05T15:00:29.804Z,13.92
2022-11-05T15:03:01.977Z,13.91
2022-11-05T15:05:48.473Z,13.88
2022-11-05T15:08:31.885Z,13.83
2022-11-05T15:11:12.825Z,13.79
2022-11-05T15:13:51.324Z,13.75
2022-11-05T15:16:42.868Z,13.69
2022-11-05T15:19:21.708Z,13.63
2022-11-05T15:21:51.298Z,13.60
2022-11-05T15:24:20.639Z,13.55
2022-11-05T15:27:27.886Z,13.51
2022-11-05T15:29:55.878Z,13.46
2022-11-05T15:32:26.855Z,13.43
2022-11-05T15:34:56.413Z,13.38
2022-11-05T15:37:27.216Z,13.37
2022-11-05T15:39:55.665Z,13.36
2022-11-05T15:42:25.455Z,13.32
2022-11-05T15:45:00.117Z,13.28
2022-11-05T15:47:30.815Z,13.25
2022-11-05T15:50:15.117Z,13.23
2022-11-05T15:52:51.767Z,13.20
2022-11-05T15:55:25.070Z,13.18
2022-11-05T15:58:00.149Z,13.15
2022-11-05T16:00:31.256Z,13.12
2022-11-05T16:03:04.950Z,13.04
2022-11-05T16:05:35.692Z,12.96
2022-11-05T16:08:05.484Z,12.90
2022-11-05T16:10:38.633Z,12.84
2022-11-05T16:13:38.471Z,12.77
2022-11-05T16:16:24.715Z,12.74
2022-11-05T16:18:52.917Z,12.72
2022-11-05T16:21:23.261Z,12.70
2022-11-05T16:24:00.042Z,12.70
2022-11-05T16:29:29.520Z,12.74
2022-11-05T16:32:06.025Z,12.75
2022-11-05T16:34:49.165Z,12.76
2022-11-05T16:37:20.802Z,12.75
2022-11-05T16:39:49.703Z,12.72
2022-11-05T16:42:24.487Z,12.69
2022-11-05T16:44:58.195Z,12.65
2022-11-05T16:47:26.654Z,12.57
2022-11-05T16:49:55.023Z,12.52
2022-11-05T16:52:23.345Z,12.49
2022-11-05T16:54:51.664Z,12.49
2022-11-05T16:57:29.741Z,12.48
2022-11-05T17:00:00.164Z,12.48
2022-11-05T17:02:28.815Z,12.48
2022-11-05T17:04:57.553Z,12.46
2022-11-05T17:07:25.652Z,12.45
2022-11-05T17:09:55.989Z,12.42
2022-11-05T17:12:24.024Z,12.41
2022-11-05T17:14:52.764Z,12.39
2022-11-05T17:17:22.393Z,12.38
2022-11-05T17:19:50.544Z,12.36
2022-11-05T17:22:18.892Z,12.35
2022-11-05T17:24:47.490Z,12.36
2022-11-05T17:27:15.914Z,12.36
2022-11-05T17:29:43.887Z,12.33
2022-11-05T17:32:13.179Z,12.30
2022-11-05T17:34:42.234Z,12.26
2022-11-05T17:37:10.679Z,12.23
2022-11-05T17:39:38.680Z,12.20
2022-11-05T17:42:06.705Z,12.14
2022-11-05T17:44:40.213Z,12.10
2022-11-05T17:47:09.538Z,12.09
2022-11-05T17:49:37.910Z,12.06
2022-11-05T17:52:05.855Z,12.02
2022-11-05T17:54:33.948Z,11.99
2022-11-05T17:57:08.282Z,11.96
2022-11-05T17:59:36.220Z,11.92
2022-11-05T18:02:04.857Z,11.88
2022-11-05T18:04:33.478Z,11.88
2022-11-05T18:07:01.505Z,11.88
2022-11-05T18:09:29.527Z,11.89
2022-11-05T18:11:57.552Z,11.90
2022-11-05T18:14:25.772Z,11.90
2022-11-05T18:16:56.474Z,11.88
2022-11-05T18:19:24.460Z,11.86
2022-11-05T18:21:52.401Z,11.79
2022-11-05T18:24:23.189Z,11.73
2022-11-05T18:26:51.508Z,11.70
2022-11-05T18:29:20.056Z,11.67
2022-11-05T18:31:48.153Z,11.65
2022-11-05T18:34:17.309Z,11.64
2022-11-05T18:36:53.516Z,11.63
2022-11-05T18:39:26.192Z,11.59
2022-11-05T18:41:54.224Z,11.56
2022-11-05T18:44:23.055Z,11.54
2022-11-05T18:46:58.051Z,11.50
2022-11-05T18:49:27.438Z,11.50
2022-11-05T18:51:55.578Z,11.47
2022-11-05T18:54:23.529Z,11.46
2022-11-05T18:56:51.799Z,11.48
2022-11-05T18:59:38.701Z,11.48
2022-11-05T19:02:11.018Z,11.48
2022-11-05T19:04:50.587Z,11.45
2022-11-05T19:07:29.139Z,11.41
2022-11-05T19:09:57.164Z,11.36
2022-11-05T19:12:25.186Z,11.32
2022-11-05T19:14:56.673Z,11.29
2022-11-05T19:17:28.708Z,11.26
2022-11-05T19:19:56.579Z,11.23
2022-11-05T19:22:26.361Z,11.22
2022-11-05T19:24:54.292Z,11.21
2022-11-05T19:27:23.279Z,11.18
2022-11-05T19:29:51.887Z,11.14
2022-11-05T19:32:21.352Z,11.12
2022-11-05T19:34:49.397Z,11.10
2022-11-05T19:37:17.561Z,11.08
2022-11-05T19:39:45.624Z,11.06
2022-11-05T19:42:13.807Z,11.05
2022-11-05T19:44:43.735Z,11.07
2022-11-05T19:47:11.979Z,11.08
2022-11-05T19:49:40.224Z,11.08
2022-11-05T19:52:08.744Z,11.09
2022-11-05T19:54:38.112Z,11.08
2022-11-05T19:57:06.664Z,11.06
2022-11-05T19:59:34.674Z,11.03
2022-11-05T20:02:02.769Z,11.00
2022-11-05T20:04:31.541Z,10.98
2022-11-05T20:06:59.594Z,10.96
2022-11-05T20:09:27.867Z,10.96
2022-11-05T20:11:56.778Z,10.97
2022-11-05T20:14:26.434Z,11.00
2022-11-05T20:16:54.532Z,11.01
2022-11-05T20:19:23.427Z,10.99
2022-11-05T20:21:52.180Z,10.96
2022-11-05T20:24:25.193Z,10.93
2022-11-05T20:26:56.076Z,10.88
2022-11-05T20:29:30.487Z,10.84
2022-11-05T20:32:04.228Z,10.80
2022-11-05T20:34:34.116Z,10.77
2022-11-05T20:37:02.420Z,10.78
2022-11-05T20:39:33.532Z,10.74
2022-11-05T20:42:01.551Z,10.71
2022-11-05T20:44:29.719Z,10.70
2022-11-05T20:46:57.670Z,10.66
2022-11-05T20:49:26.065Z,10.63
2022-11-05T20:51:55.043Z,10.58
2022-11-05T20:54:23.571Z,10.55
2022-11-05T20:56:55.330Z,10.53
2022-11-05T20:59:24.051Z,10.52
2022-11-05T21:01:52.696Z,10.50
2022-11-05T21:04:21.455Z,10.49
2022-11-05T21:06:49.508Z,10.47
2022-11-05T21:09:18.360Z,10.45
2022-11-05T21:12:05.508Z,10.48
2022-11-05T21:14:35.222Z,10.50
2022-11-05T21:17:04.042Z,10.48
2022-11-05T21:19:33.366Z,10.44
2022-11-05T21:22:02.784Z,10.38
2022-11-05T21:24:32.420Z,10.32
2022-11-05T21:27:00.923Z,10.25
2022-11-05T21:29:29.071Z,10.19
2022-11-05T21:31:57.035Z,10.13
2022-11-05T21:34:25.179Z,10.06
2022-11-05T21:36:53.331Z,9.93
2022-11-05T21:39:21.383Z,9.83
2022-11-05T21:41:49.336Z,9.78
2022-11-05T21:44:17.419Z,9.71
2022-11-05T21:46:45.350Z,9.65
2022-11-05T21:49:14.589Z,9.60
2022-11-05T21:52:00.785Z,9.56
2022-11-05T21:54:48.635Z,9.48
2022-11-05T21:57:37.007Z,9.42
2022-11-05T22:00:11.184Z,9.37
2022-11-05T22:02:39.406Z,9.32
2022-11-05T22:05:08.091Z,9.28
2022-11-05T22:07:38.102Z,9.23
2022-11-05T22:10:14.634Z,9.21
2022-11-05T22:12:44.782Z,9.16
2022-11-05T22:15:13.636Z,9.14
2022-11-05T22:17:46.588Z,9.16
2022-11-05T22:20:16.502Z,9.14
2022-11-05T22:22:44.986Z,9.14
2022-11-05T22:25:13.819Z,9.12
2022-11-05T22:27:43.708Z,9.10
2022-11-05T22:30:13.775Z,9.08
2022-11-05T22:32:41.921Z,9.04
2022-11-05T22:35:10.436Z,9.01
2022-11-05T22:37:38.829Z,8.97
2022-11-05T22:40:08.595Z,8.91
2022-11-05T22:42:36.627Z,8.87
2022-11-05T22:45:05.294Z,8.82
2022-11-05T22:47:33.225Z,8.78
2022-11-05T22:50:01.493Z,8.74
2022-11-05T22:52:29.443Z,8.71
2022-11-05T22:54:57.782Z,8.69
2022-11-05T22:57:25.876Z,8.66
2022-11-05T22:59:53.737Z,8.62
2022-11-05T23:02:21.825Z,8.57
2022-11-05T23:04:51.848Z,8.51
2022-11-05T23:07:38.467Z,8.46
2022-11-05T23:10:25.650Z,8.40
2022-11-05T23:12:55.536Z,8.33
2022-11-05T23:15:42.109Z,8.27
2022-11-05T23:18:28.971Z,8.20
2022-11-05T23:21:17.995Z,8.14
2022-11-05T23:24:05.292Z,8.09
2022-11-05T23:26:50.075Z,8.07
2022-11-05T23:29:23.593Z,8.03
2022-11-05T23:32:10.448Z,7.97
2022-11-05T23:34:38.870Z,7.93
2022-11-05T23:37:26.412Z,7.90
2022-11-05T23:39:55.628Z,7.87
2022-11-05T23:42:42.319Z,7.86
2022-11-05T23:45:29.371Z,7.84
2022-11-05T23:48:16.114Z,7.83
2022-11-05T23:50:57.159Z,7.83
2022-11-05T23:53:26.714Z,7.82
2022-11-05T23:56:03.216Z,7.82
2022-11-05T23:58:31.966Z,7.82
